KCLT/CLT METAR and TAF weather

Enter ICAO airport designator
Station Type Date Time Source
KCLT METAR 2018/01/19 22:52 UTC NOAA

KCLT 192252Z 24004KT 10SM FEW100 FEW250 09/M07 A3016 RMK AO2 SLP216 T00941067


Station Type Date Time Source
KCLT Decoded METAR 2018/01/19 22:52 UTC NOAA

CHARLOTTE/DOUGLAS INTERNATIONAL , NC, United States (KCLT) 35-13N 80-57W 220M
Jan 19, 2018 - 05:52 PM EST / 2018.01.19 2252 UTC
Wind: from the WSW (240 degrees) at 5 MPH (4 KT):0
Visibility: 10 mile(s):0
Sky conditions: mostly clear
Temperature: 48.9 F (9.4 C)
Dew Point: 19.9 F (-6.7 C)
Relative Humidity: 31%
Pressure (altimeter): 30.16 in. Hg (1021 hPa)
ob: KCLT 192252Z 24004KT 10SM FEW100 FEW250 09/M07 A3016 RMK AO2 SLP216 T00941067
cycle: 23

Station Type Date Time Source
KCLT TAF 2018/01/19 22:51 UTC NOAA

TAF
AMD KCLT 192148Z 1922/2024 22004KT P6SM FEW250
FM201400 25005KT P6SM SCT250


Example: see airport list